Terminal Aerodrome Forecast
Issued by NWS

Home | Current Version | Previous Version | Text Only | Print | Product List | Glossary On
Versions: 1 2 3 4 5 6 7 8 9 10 11 12
922
FTUS42 TJSJ 092347
TAFJBQ
TAF
TJBQ 092347Z 1000/1024 VRB05KT P6SM FEW021
     FM101430 06008KT P6SM FEW030 SCT050
     FM101800 05012KT P6SM VCSH SCT030 BKN040
     FM102300 11005KT P6SM SCT030 SCT050=

USA.gov is the U.S. government's official web portal to all federal, state and local government web resources and services.